.
WxDataArchive / Data Records for 2010-05-10
2010-05-09 May 2010 2010-05-11

Data Records for Monday, 10 May 2010

Time	Temp	Chill	HIndex	Humid	Dewpt	 Wind 	HiWind	WindDir	Rain 	Barom 
-----	----	-----	------	-----	-----	------	------	-------	-----	----- 
00:00	37.2	37.2	37.2	75	30.0	0	0	---	0.00	30.363 
00:05	37.2	37.2	37.2	76	30.3	0	0	---	0.00	30.363 
00:10	37.0	37.0	37.0	77	30.5	0	0	---	0.00	30.363 
00:15	37.0	37.0	37.0	77	30.5	0	0	---	0.00	30.360 
00:20	37.0	37.0	37.0	77	30.5	0	0	---	0.00	30.360 
00:25	37.0	37.0	37.0	77	30.5	0	0	---	0.00	30.360 
00:30	36.9	36.9	36.9	77	30.4	0	0	---	0.00	30.362 
00:35	36.9	36.9	36.9	77	30.4	0	0	---	0.00	30.362 
00:40	36.8	36.8	36.8	78	30.6	0	0	---	0.00	30.362 
00:45	36.8	36.8	36.8	78	30.6	0	0	---	0.00	30.363 
00:50	36.8	36.8	36.8	78	30.6	0	0	---	0.00	30.363 
00:55	36.8	36.8	36.8	79	30.9	0	0	---	0.00	30.363 
01:00	36.6	36.6	36.6	79	30.7	0	0	---	0.00	30.367 
01:05	36.5	36.5	36.5	79	30.6	0	0	---	0.00	30.367 
01:10	36.3	36.3	36.3	79	30.4	0	0	---	0.00	30.367 
01:15	36.2	36.2	36.2	80	30.6	0	0	---	0.00	30.376 
01:20	36.2	36.2	36.2	80	30.6	0	0	---	0.00	30.376 
01:25	36.0	36.0	36.0	81	30.7	0	0	---	0.00	30.376 
01:30	35.9	35.9	35.9	81	30.6	0	0	---	0.00	30.379 
01:35	35.9	35.9	35.9	81	30.6	0	0	---	0.00	30.379 
01:40	35.8	35.8	35.8	81	30.6	0	0	---	0.00	30.379 
01:45	35.6	35.6	35.6	81	30.4	0	0	---	0.00	30.378 
01:50	35.6	35.6	35.6	81	30.4	0	0	---	0.00	30.378 
01:55	35.6	35.6	35.6	81	30.4	0	0	---	0.00	30.378 
02:00	35.6	35.6	35.6	81	30.4	0	0	---	0.00	30.377 
02:05	35.5	35.5	35.5	81	30.3	0	0	---	0.00	30.377 
02:10	35.5	35.5	35.5	81	30.3	0	0	---	0.00	30.377 
02:15	35.3	35.3	35.3	81	30.1	0	0	---	0.00	30.373 
02:20	35.2	35.2	35.2	81	30.0	0	0	---	0.00	30.373 
02:25	34.9	34.9	34.9	81	29.7	0	0	---	0.00	30.373 
02:30	34.7	34.7	34.7	81	29.5	0	0	---	0.00	30.372 
02:35	34.6	34.6	34.6	82	29.7	0	0	---	0.00	30.372 
02:40	34.4	34.4	34.4	82	29.5	0	0	---	0.00	30.372 
02:45	34.3	34.3	34.3	82	29.4	0	0	---	0.00	30.369 
02:50	34.1	34.1	34.1	82	29.2	0	0	---	0.00	30.369 
02:55	34.0	34.0	34.0	83	29.4	0	0	---	0.00	30.369 
03:00	33.8	33.8	33.8	84	29.5	0	0	---	0.00	30.368 
03:05	33.8	33.8	33.8	84	29.5	0	0	---	0.00	30.368 
03:10	33.7	33.7	33.7	84	29.4	0	0	---	0.00	30.368 
03:15	33.7	33.7	33.7	85	29.7	0	0	---	0.00	30.368 
03:20	33.5	33.5	33.5	85	29.5	0	0	---	0.00	30.368 
03:25	33.5	33.5	33.5	85	29.5	0	0	---	0.00	30.368 
03:30	33.4	33.4	33.4	85	29.4	0	0	---	0.00	30.374 
03:35	33.4	33.4	33.4	86	29.7	0	0	---	0.00	30.374 
03:40	33.2	33.2	33.2	86	29.5	0	0	---	0.00	30.374 
03:45	33.2	33.2	33.2	86	29.5	0	0	---	0.00	30.372 
03:50	33.2	33.2	33.2	86	29.5	0	0	---	0.00	30.372 
03:55	33.2	33.2	33.2	87	29.8	0	0	---	0.00	30.372 
04:00	33.2	33.2	33.2	87	29.8	0	0	---	0.00	30.366 
04:05	33.2	33.2	33.2	87	29.8	0	0	---	0.00	30.366 
04:10	33.1	33.1	33.1	87	29.7	0	0	---	0.00	30.366 
04:15	33.1	33.1	33.1	87	29.7	0	0	---	0.00	30.370 
04:20	32.9	32.9	32.9	87	29.5	0	0	---	0.00	30.370 
04:25	32.9	32.9	32.9	87	29.5	0	0	---	0.00	30.370 
04:30	32.8	32.8	32.8	87	29.4	0	0	---	0.00	30.371 
04:35	32.8	32.8	32.8	87	29.4	0	0	---	0.00	30.371 
04:40	32.7	32.7	32.7	87	29.3	0	0	---	0.00	30.371 
04:45	32.5	32.5	32.5	88	29.3	0	0	---	0.00	30.370 
04:50	32.5	32.5	32.5	88	29.3	0	0	---	0.00	30.370 
04:55	32.5	32.5	32.5	88	29.3	0	0	---	0.00	30.370 
05:00	32.4	32.4	32.4	88	29.3	0	0	---	0.00	30.376 
05:05	32.4	32.4	32.4	88	29.3	0	0	---	0.00	30.376 
05:10	32.2	32.2	32.2	88	29.1	0	0	---	0.00	30.376 
05:15	32.2	32.2	32.2	88	29.1	0	0	---	0.00	30.376 
05:20	32.2	32.2	32.2	88	29.1	0	0	---	0.00	30.376 
05:25	32.2	32.2	32.2	88	29.1	0	0	---	0.00	30.376 
05:30	32.2	32.2	32.2	89	29.3	0	0	---	0.00	30.383 
05:35	32.2	32.2	32.2	89	29.3	0	0	---	0.00	30.383 
05:40	32.2	32.2	32.2	89	29.3	0	0	---	0.00	30.383 
05:45	32.1	32.1	32.1	88	29.0	0	0	---	0.00	30.380 
05:50	31.9	31.9	31.9	88	28.8	0	0	---	0.00	30.380 
05:55	31.8	31.8	31.8	89	28.9	0	0	---	0.00	30.380 
06:00	31.8	31.8	31.8	89	28.9	0	0	---	0.00	30.381 
06:05	31.6	31.6	31.6	89	28.7	0	0	---	0.00	30.381 
06:10	31.6	31.6	31.6	89	28.7	0	0	---	0.00	30.381 
06:15	31.5	31.5	31.5	89	28.6	0	0	---	0.00	30.389 
06:20	31.5	31.5	31.5	89	28.6	0	0	---	0.00	30.389 
06:25	31.5	31.5	31.5	89	28.6	0	0	---	0.00	30.389 
06:30	31.5	31.5	31.5	89	28.6	0	0	---	0.00	30.395 
06:35	31.3	31.3	31.3	90	28.7	0	0	---	0.00	30.395 
06:40	31.3	31.3	31.3	90	28.7	0	0	---	0.00	30.395 
06:45	31.3	31.3	31.3	90	28.7	0	0	---	0.00	30.398 
06:50	31.3	31.3	31.3	90	28.7	0	0	---	0.00	30.398 
06:55	31.5	31.5	31.5	90	28.9	0	0	---	0.00	30.398 
07:00	31.5	31.5	31.5	90	28.9	0	0	---	0.00	30.400 
07:05	31.8	31.8	31.8	90	29.2	0	0	---	0.00	30.400 
07:10	31.9	31.9	31.9	91	29.6	0	0	---	0.00	30.400 
07:15	32.2	32.2	32.2	91	29.9	0	0	---	0.00	30.403 
07:20	32.5	32.5	32.5	91	30.2	0	0	---	0.00	30.403 
07:25	32.9	32.9	32.9	92	30.8	0	0	---	0.00	30.403 
07:30	33.5	33.5	33.5	92	31.4	0	0	---	0.00	30.417 
07:35	34.3	34.3	34.3	92	32.2	0	0	---	0.00	30.417 
07:40	35.3	35.3	35.3	92	33.2	0	0	---	0.00	30.417 
07:45	36.3	36.3	36.3	91	33.9	0	0	---	0.00	30.420 
07:50	37.5	37.5	37.5	90	34.8	0	1	22	0.00	30.420 
07:55	38.8	38.8	38.8	86	35.0	0	1	22	0.00	30.420 
08:00	40.1	40.1	40.1	75	32.8	1	5	112	0.00	30.408 
08:05	41.2	41.2	41.2	68	31.5	1	4	112	0.00	30.408 
08:10	42.2	42.2	42.2	62	30.1	1	4	112	0.00	30.408 
08:15	42.9	42.9	42.9	60	30.0	2	5	112	0.00	30.419 
08:20	43.5	43.5	43.5	61	31.0	1	3	112	0.00	30.419 
08:25	44.2	44.2	44.2	60	31.2	1	4	90	0.00	30.419 
08:30	44.8	44.8	44.8	59	31.4	1	4	90	0.00	30.417 
08:35	45.4	45.4	45.4	57	31.1	1	5	90	0.00	30.417 
08:40	45.8	45.8	45.8	56	31.0	2	6	90	0.00	30.417 
08:45	46.1	46.1	46.1	55	30.8	1	6	112	0.00	30.408 
08:50	45.8	45.8	45.8	56	31.0	3	7	112	0.00	30.408 
08:55	46.0	46.0	46.0	56	31.2	2	5	112	0.00	30.408 
09:00	46.2	46.2	46.2	55	30.9	2	7	112	0.00	30.410 
09:05	46.5	46.5	46.5	54	30.8	2	5	112	0.00	30.410 
09:10	47.0	47.0	47.0	53	30.8	2	5	90	0.00	30.410 
09:15	47.4	47.4	47.4	53	31.1	2	5	90	0.00	30.413 
09:20	47.9	47.9	47.9	54	32.1	2	4	90	0.00	30.413 
09:25	48.2	48.2	48.2	50	30.4	3	7	90	0.00	30.413 
09:30	48.6	48.6	48.6	48	29.8	3	7	90	0.00	30.411 
09:35	49.2	49.2	49.2	46	29.3	2	5	90	0.00	30.411 
09:40	49.5	49.5	49.5	46	29.6	3	11	68	0.00	30.411 
09:45	49.9	49.9	49.9	46	30.0	2	6	90	0.00	30.406 
09:50	50.1	50.1	50.1	43	28.5	4	9	90	0.00	30.406 
09:55	50.2	50.2	50.2	42	28.0	3	6	90	0.00	30.406 
10:00	50.4	50.4	50.4	43	28.8	2	5	90	0.00	30.410 
10:05	50.8	50.8	50.8	41	28.0	3	6	112	0.00	30.410 
10:10	51.3	51.3	51.3	43	29.6	2	6	112	0.00	30.410 
10:15	51.4	51.4	51.4	43	29.7	2	5	90	0.00	30.412 
10:20	51.7	51.7	51.7	40	28.2	2	5	90	0.00	30.412 
10:25	51.9	51.9	51.9	40	28.3	2	5	90	0.00	30.412 
10:30	52.2	52.2	52.2	41	29.2	2	5	90	0.00	30.413 
10:35	52.3	52.3	52.3	38	27.5	3	6	90	0.00	30.413 
10:40	52.6	52.6	52.6	39	28.4	3	6	112	0.00	30.413 
10:45	52.8	52.8	52.8	39	28.5	2	5	90	0.00	30.412 
10:50	53.2	53.2	53.2	40	29.5	2	5	68	0.00	30.412 
10:55	53.2	53.2	53.2	37	27.6	3	9	90	0.00	30.412 
11:00	53.5	53.5	53.5	37	27.9	3	10	90	0.00	30.415 
11:05	53.6	53.6	53.6	36	27.3	2	10	112	0.00	30.415 
11:10	53.9	53.9	53.9	33	25.5	3	8	90	0.00	30.415 
11:15	53.8	53.8	53.8	32	24.6	4	9	90	0.00	30.416 
11:20	53.9	53.9	53.9	36	27.6	3	8	90	0.00	30.416 
11:25	54.5	54.5	54.5	36	28.1	2	5	90	0.00	30.416 
11:30	55.0	55.0	55.0	38	29.9	3	7	90	0.00	30.409 
11:35	55.1	55.1	55.1	37	29.3	2	7	90	0.00	30.409 
11:40	55.3	55.3	55.3	36	28.8	3	5	112	0.00	30.409 
11:45	55.4	55.4	55.4	36	28.9	3	7	90	0.00	30.411 
11:50	55.7	55.7	55.7	35	28.5	2	7	90	0.00	30.411 
11:55	55.7	55.7	55.7	34	27.8	3	11	90	0.00	30.411 
12:00	55.7	55.7	55.7	32	26.3	3	8	90	0.00	30.403 
12:05	56.2	56.2	56.2	33	27.5	2	6	90	0.00	30.403 
12:10	56.5	56.5	56.5	33	27.7	2	9	90	0.00	30.403 
12:15	56.7	56.7	56.7	34	28.7	3	10	90	0.00	30.391 
12:20	56.6	56.6	56.6	31	26.3	3	7	90	0.00	30.391 
12:25	56.5	56.5	56.5	31	26.2	2	4	90	0.00	30.391 
12:30	56.5	56.5	56.5	31	26.2	3	10	90	0.00	30.391 
12:35	56.3	56.3	56.3	28	23.6	4	11	90	0.00	30.391 
12:40	56.5	56.5	56.5	32	27.0	2	6	90	0.00	30.391 
12:45	56.7	56.7	56.7	30	25.6	4	11	90	0.00	30.393 
12:50	56.3	56.3	56.3	32	26.8	4	11	90	0.00	30.393 
12:55	56.3	56.3	56.3	31	26.1	4	8	90	0.00	30.393 
13:00	56.9	56.9	56.9	37	30.9	2	6	90	0.00	30.389 
13:05	57.3	57.3	57.3	32	27.7	3	7	90	0.00	30.389 
13:10	56.9	56.9	56.9	32	27.4	3	8	112	0.00	30.389 
13:15	56.7	56.7	56.7	31	26.4	4	10	90	0.00	30.390 
13:20	56.9	56.9	56.9	29	25.0	3	6	112	0.00	30.390 
13:25	56.9	56.9	56.9	34	28.8	4	12	90	0.00	30.390 
13:30	56.9	56.9	56.9	31	26.6	5	10	90	0.00	30.378 
13:35	57.0	57.0	57.0	33	28.2	3	7	112	0.00	30.378 
13:40	57.5	57.5	57.5	32	27.9	4	9	112	0.00	30.378 
13:45	57.5	57.5	57.5	32	27.9	2	7	112	0.00	30.372 
13:50	57.6	57.6	57.6	31	27.2	4	11	90	0.00	30.372 
13:55	58.1	58.1	58.1	34	29.9	2	6	112	0.00	30.372 
14:00	58.3	58.3	58.3	31	27.8	3	9	112	0.00	30.374 
14:05	58.3	58.3	58.3	32	28.6	3	5	90	0.00	30.374 
14:10	58.9	58.9	58.9	30	27.5	3	6	112	0.00	30.374 
14:15	59.2	59.2	59.2	34	30.8	2	6	112	0.00	30.372 
14:20	59.2	59.2	59.2	29	27.0	3	9	90	0.00	30.372 
14:25	58.9	58.9	58.9	31	28.3	3	7	90	0.00	30.372 
14:30	58.7	58.7	58.7	29	26.5	4	12	90	0.00	30.364 
14:35	58.9	58.9	58.9	31	28.3	3	7	112	0.00	30.364 
14:40	58.9	58.9	58.9	31	28.3	3	6	90	0.00	30.364 
14:45	59.2	59.2	59.2	29	27.0	3	6	112	0.00	30.356 
14:50	59.2	59.2	59.2	28	26.1	3	7	112	0.00	30.356 
14:55	58.9	58.9	58.9	28	25.9	3	7	112	0.00	30.356 
15:00	59.0	59.0	59.0	31	28.4	2	7	90	0.00	30.347 
15:05	59.3	59.3	59.3	30	27.9	2	5	112	0.00	30.347 
15:10	59.2	59.2	59.2	31	28.6	3	6	90	0.00	30.347 
15:15	58.9	58.9	58.9	28	25.9	3	6	90	0.00	30.340 
15:20	58.6	58.6	58.6	28	25.6	3	7	112	0.00	30.340 
15:25	58.6	58.6	58.6	29	26.4	3	7	90	0.00	30.340 
15:30	58.6	58.6	58.6	29	26.4	3	7	90	0.00	30.336 
15:35	58.3	58.3	58.3	29	26.2	3	9	90	0.00	30.336 
15:40	58.0	58.0	58.0	30	26.7	3	9	112	0.00	30.336 
15:45	57.8	57.8	57.8	27	24.0	4	7	112	0.00	30.335 
15:50	57.8	57.8	57.8	31	27.4	3	10	112	0.00	30.335 
15:55	57.6	57.6	57.6	29	25.6	3	7	68	0.00	30.335 
16:00	58.0	58.0	58.0	31	27.5	2	5	90	0.00	30.320 
16:05	58.0	58.0	58.0	29	25.9	3	7	112	0.00	30.320 
16:10	58.1	58.1	58.1	33	29.2	3	7	90	0.00	30.320 
16:15	58.3	58.3	58.3	32	28.6	3	13	90	0.00	30.311 
16:20	58.3	58.3	58.3	30	27.0	4	7	90	0.00	30.311 
16:25	58.1	58.1	58.1	28	25.2	3	9	112	0.00	30.311 
16:30	58.1	58.1	58.1	31	27.6	2	6	112	0.00	30.313 
16:35	58.4	58.4	58.4	32	28.7	2	6	112	0.00	30.313 
16:40	58.1	58.1	58.1	29	26.0	4	11	90	0.00	30.313 
16:45	58.1	58.1	58.1	32	28.4	2	5	90	0.00	30.307 
16:50	58.1	58.1	58.1	32	28.4	3	11	112	0.00	30.307 
16:55	58.1	58.1	58.1	31	27.6	3	6	90	0.00	30.307 
17:00	58.1	58.1	58.1	33	29.2	3	7	90	0.00	30.306 
17:05	58.0	58.0	58.0	35	30.5	4	10	112	0.00	30.306 
17:10	57.8	57.8	57.8	35	30.3	2	9	90	0.00	30.306 
17:15	57.8	57.8	57.8	34	29.6	3	9	90	0.00	30.304 
17:20	57.5	57.5	57.5	34	29.4	4	11	90	0.00	30.304 
17:25	57.3	57.3	57.3	38	31.9	2	6	68	0.00	30.304 
17:30	57.5	57.5	57.5	34	29.4	3	7	90	0.00	30.302 
17:35	57.3	57.3	57.3	35	29.9	3	9	90	0.00	30.302 
17:40	57.2	57.2	57.2	34	29.1	3	12	90	0.00	30.302 
17:45	57.0	57.0	57.0	35	29.6	3	9	90	0.00	30.304 
17:50	56.9	56.9	56.9	35	29.5	3	7	90	0.00	30.304 
17:55	56.7	56.7	56.7	35	29.4	3	10	90	0.00	30.304 
18:00	56.6	56.6	56.6	35	29.3	3	9	90	0.00	30.304 
18:05	56.6	56.6	56.6	34	28.6	3	6	90	0.00	30.304 
18:10	56.5	56.5	56.5	36	29.9	3	10	90	0.00	30.304 
18:15	56.5	56.5	56.5	35	29.2	4	7	90	0.00	30.301 
18:20	56.3	56.3	56.3	36	29.7	4	9	90	0.00	30.301 
18:25	56.3	56.3	56.3	35	29.0	3	7	90	0.00	30.301 
18:30	56.3	56.3	56.3	36	29.7	2	7	90	0.00	30.300 
18:35	56.3	56.3	56.3	34	28.3	3	9	90	0.00	30.300 
18:40	56.2	56.2	56.2	36	29.6	2	6	90	0.00	30.300 
18:45	56.0	56.0	56.0	36	29.4	2	5	90	0.00	30.297 
18:50	56.0	56.0	56.0	37	30.1	2	7	112	0.00	30.297 
18:55	55.9	55.9	55.9	35	28.7	3	9	90	0.00	30.297 
19:00	55.7	55.7	55.7	37	29.8	2	5	90	0.00	30.298 
19:05	55.7	55.7	55.7	37	29.8	2	6	90	0.00	30.298 
19:10	55.6	55.6	55.6	36	29.1	3	9	90	0.00	30.298 
19:15	55.4	55.4	55.4	35	28.2	3	6	90	0.00	30.290 
19:20	55.3	55.3	55.3	35	28.1	4	11	90	0.00	30.290 
19:25	55.1	55.1	55.1	38	30.0	3	9	90	0.00	30.290 
19:30	55.0	55.0	55.0	36	28.5	3	9	112	0.00	30.282 
19:35	54.8	54.8	54.8	37	29.0	3	5	90	0.00	30.282 
19:40	54.7	54.7	54.7	37	28.9	3	6	90	0.00	30.282 
19:45	54.5	54.5	54.5	37	28.8	3	9	112	0.00	30.279 
19:50	54.2	54.2	54.2	37	28.5	3	7	90	0.00	30.279 
19:55	54.1	54.1	54.1	38	29.1	2	9	112	0.00	30.279 
20:00	53.8	53.8	53.8	37	28.1	3	7	90	0.00	30.274 
20:05	53.6	53.6	53.6	37	28.0	4	11	90	0.00	30.274 
20:10	53.5	53.5	53.5	38	28.5	3	6	90	0.00	30.274 
20:15	53.2	53.2	53.2	38	28.3	3	7	90	0.00	30.260 
20:20	53.1	53.1	53.1	39	28.8	3	6	90	0.00	30.260 
20:25	52.8	52.8	52.8	38	27.9	4	10	90	0.00	30.260 
20:30	52.6	52.6	52.6	38	27.7	3	9	90	0.00	30.253 
20:35	52.5	52.5	52.5	38	27.6	4	10	90	0.00	30.253 
20:40	52.2	52.2	52.2	38	27.4	4	7	90	0.00	30.253 
20:45	52.0	52.0	52.0	38	27.2	3	9	90	0.00	30.247 
20:50	51.9	51.9	51.9	37	26.5	3	12	90	0.00	30.247 
20:55	51.7	51.7	51.7	38	26.9	3	6	112	0.00	30.247 
21:00	51.6	51.6	51.6	37	26.2	3	5	112	0.00	30.254 
21:05	51.3	51.3	51.3	39	27.2	2	6	90	0.00	30.254 
21:10	51.1	51.1	51.1	38	26.4	3	7	112	0.00	30.254 
21:15	51.0	51.0	51.0	37	25.7	4	10	112	0.00	30.252 
21:20	50.8	50.8	50.8	39	26.7	1	4	90	0.00	30.252 
21:25	50.5	50.5	50.5	40	27.1	3	10	112	0.00	30.252 
21:30	50.2	50.2	50.2	40	26.8	2	5	112	0.00	30.257 
21:35	50.1	50.1	50.1	41	27.3	2	6	112	0.00	30.257 
21:40	49.8	49.8	49.8	41	27.1	3	7	90	0.00	30.257 
21:45	49.6	49.6	49.6	42	27.5	1	6	112	0.00	30.255 
21:50	49.5	49.5	49.5	42	27.4	2	5	90	0.00	30.255 
21:55	49.4	49.4	49.4	41	26.7	2	5	90	0.00	30.255 
22:00	49.2	49.2	49.2	42	27.1	2	5	90	0.00	30.257 
22:05	49.1	49.1	49.1	42	27.0	2	7	90	0.00	30.257 
22:10	48.8	48.8	48.8	43	27.3	2	5	90	0.00	30.257 
22:15	48.8	48.8	48.8	42	26.7	2	7	68	0.00	30.249 
22:20	48.6	48.6	48.6	42	26.6	2	6	112	0.00	30.249 
22:25	48.5	48.5	48.5	41	25.9	3	7	112	0.00	30.249 
22:30	48.5	48.5	48.5	40	25.3	3	6	112	0.00	30.243 
22:35	48.3	48.3	48.3	40	25.1	3	9	90	0.00	30.243 
22:40	48.3	46.9	48.3	40	25.1	4	11	90	0.00	30.243 
22:45	48.2	46.8	48.2	40	25.0	4	11	112	0.00	30.243 
22:50	48.2	48.2	48.2	41	25.6	3	6	90	0.00	30.243 
22:55	48.0	48.0	48.0	42	26.0	3	9	90	0.00	30.243 
23:00	47.9	46.4	47.9	43	26.5	4	11	90	0.00	30.238 
23:05	47.7	47.7	47.7	43	26.3	3	10	90	0.00	30.238 
23:10	47.6	46.1	47.6	44	26.8	4	11	90	0.00	30.238 
23:15	47.6	46.1	47.6	44	26.8	4	11	90	0.00	30.239 
23:20	47.4	47.4	47.4	45	27.1	3	12	90	0.00	30.239 
23:25	47.4	47.4	47.4	46	27.7	3	5	90	0.00	30.239 
23:30	47.3	45.0	47.3	47	28.1	5	10	90	0.00	30.228 
23:35	47.1	47.1	47.1	47	27.9	3	10	112	0.00	30.228 
23:40	47.1	47.1	47.1	48	28.4	3	10	90	0.00	30.228 
23:45	47.0	47.0	47.0	49	28.8	3	8	90	0.00	30.226 
23:50	46.8	46.8	46.8	50	29.2	3	6	90	0.00	30.226 
23:55	46.8	46.8	46.8	51	29.6	3	6	90	0.00	30.226 

CoCoRaHS
IN-AL-39
A2 Web Hosting
Creative Commons License
GoDaddy
search engine by freefind advanced

loaded 2018-11-20 02:41:35 • last modified 2010-11-18 10:43:29
Privacy PolicyDisclaimer
• wx.awcolley.com is powered by PmWiki v.2002016 •
• all content (unless otherwise noted) © 2018 A W Colley